sensor_id;sensor_type;location;lat;lon;timestamp;pressure;altitude;pressure_sealevel;temperature;humidity
56270;BME280;42176;43.240;27.880;2023-01-29T00:02:18;100273.66;;;-1.04;100.00
56270;BME280;42176;43.240;27.880;2023-01-29T00:04:44;100275.72;;;-0.59;100.00
56270;BME280;42176;43.240;27.880;2023-01-29T00:07:09;100289.75;;;-0.19;100.00
56270;BME280;42176;43.240;27.880;2023-01-29T00:09:34;100276.25;;;-0.72;100.00
56270;BME280;42176;43.240;27.880;2023-01-29T00:12:00;100292.81;;;-1.02;100.00
56270;BME280;42176;43.240;27.880;2023-01-29T00:14:25;100290.38;;;-0.64;100.00
56270;BME280;42176;43.240;27.880;2023-01-29T00:16:52;100290.13;;;-0.38;100.00
56270;BME280;42176;43.240;27.880;2023-01-29T00:19:17;100274.59;;;0.03;100.00
56270;BME280;42176;43.240;27.880;2023-01-29T00:21:43;100291.44;;;-0.56;100.00
56270;BME280;42176;43.240;27.880;2023-01-29T00:24:09;100309.16;;;-1.07;100.00
56270;BME280;42176;43.240;27.880;2023-01-29T00:26:35;100302.19;;;-0.75;100.00
56270;BME280;42176;43.240;27.880;2023-01-29T00:29:03;100298.50;;;-0.50;100.00
56270;BME280;42176;43.240;27.880;2023-01-29T00:31:29;100306.34;;;-0.13;100.00
56270;BME280;42176;43.240;27.880;2023-01-29T00:33:55;100315.38;;;-0.69;100.00
56270;BME280;42176;43.240;27.880;2023-01-29T00:36:21;100303.53;;;-0.90;100.00
56270;BME280;42176;43.240;27.880;2023-01-29T00:38:53;100293.84;;;-0.62;100.00
56270;BME280;42176;43.240;27.880;2023-01-29T00:41:25;100286.66;;;-0.02;100.00
56270;BME280;42176;43.240;27.880;2023-01-29T00:44:09;100293.66;;;-0.70;100.00
56270;BME280;42176;43.240;27.880;2023-01-29T00:46:53;100302.78;;;-1.18;100.00
56270;BME280;42176;43.240;27.880;2023-01-29T00:49:19;100298.75;;;-0.74;100.00
56270;BME280;42176;43.240;27.880;2023-01-29T00:51:44;100289.75;;;-0.19;100.00
56270;BME280;42176;43.240;27.880;2023-01-29T00:54:30;100298.94;;;-0.68;100.00
56270;BME280;42176;43.240;27.880;2023-01-29T00:56:55;100299.97;;;-0.95;100.00
56270;BME280;42176;43.240;27.880;2023-01-29T00:59:21;100284.34;;;-0.62;100.00
56270;BME280;42176;43.240;27.880;2023-01-29T01:01:46;100293.78;;;-0.32;100.00
56270;BME280;42176;43.240;27.880;2023-01-29T01:04:30;100291.06;;;-0.36;100.00
56270;BME280;42176;43.240;27.880;2023-01-29T01:06:56;100290.75;;;-0.82;100.00
56270;BME280;42176;43.240;27.880;2023-01-29T01:09:21;100294.59;;;-0.68;100.00
56270;BME280;42176;43.240;27.880;2023-01-29T01:12:05;100291.06;;;-0.36;100.00
56270;BME280;42176;43.240;27.880;2023-01-29T01:14:30;100293.13;;;-0.23;100.00
56270;BME280;42176;43.240;27.880;2023-01-29T01:16:59;100278.66;;;-0.10;100.00
56270;BME280;42176;43.240;27.880;2023-01-29T01:19:24;100299.78;;;-0.34;100.00
56270;BME280;42176;43.240;27.880;2023-01-29T01:21:49;100302.41;;;-1.00;100.00
56270;BME280;42176;43.240;27.880;2023-01-29T01:24:15;100312.97;;;-0.95;100.00
56270;BME280;42176;43.240;27.880;2023-01-29T01:26:40;100301.75;;;-0.59;100.00
56270;BME280;42176;43.240;27.880;2023-01-29T01:29:06;100309.31;;;-0.35;100.00
56270;BME280;42176;43.240;27.880;2023-01-29T01:31:31;100317.41;;;-0.24;100.00
56270;BME280;42176;43.240;27.880;2023-01-29T01:33:57;100300.81;;;-0.95;100.00
56270;BME280;42176;43.240;27.880;2023-01-29T01:36:22;100318.81;;;-1.02;100.00
56270;BME280;42176;43.240;27.880;2023-01-29T01:38:48;100295.56;;;-0.64;100.00
56270;BME280;42176;43.240;27.880;2023-01-29T01:41:15;100304.94;;;-0.37;100.00
56270;BME280;42176;43.240;27.880;2023-01-29T01:43:55;100310.66;;;-0.16;100.00
56270;BME280;42176;43.240;27.880;2023-01-29T01:46:22;100306.06;;;-0.26;100.00
56270;BME280;42176;43.240;27.880;2023-01-29T01:48:55;100294.03;;;-0.89;100.00
56270;BME280;42176;43.240;27.880;2023-01-29T01:51:23;100317.41;;;-0.91;100.00
56270;BME280;42176;43.240;27.880;2023-01-29T01:53:55;100321.16;;;-0.48;100.00
56270;BME280;42176;43.240;27.880;2023-01-29T01:56:29;100297.50;;;-0.22;100.00
56270;BME280;42176;43.240;27.880;2023-01-29T01:59:04;100303.81;;;-0.81;100.00
56270;BME280;42176;43.240;27.880;2023-01-29T02:01:31;100310.19;;;-1.01;100.00
56270;BME280;42176;43.240;27.880;2023-01-29T02:04:14;100312.09;;;-0.62;100.00
56270;BME280;42176;43.240;27.880;2023-01-29T02:07:00;100323.28;;;-0.33;100.00
56270;BME280;42176;43.240;27.880;2023-01-29T02:09:50;100322.25;;;-0.04;100.00
56270;BME280;42176;43.240;27.880;2023-01-29T02:12:18;100326.72;;;-0.67;100.00
56270;BME280;42176;43.240;27.880;2023-01-29T02:14:44;100337.53;;;-1.16;100.00
56270;BME280;42176;43.240;27.880;2023-01-29T02:17:12;100338.41;;;-0.85;100.00
56270;BME280;42176;43.240;27.880;2023-01-29T02:22:45;100339.41;;;-0.12;100.00
56270;BME280;42176;43.240;27.880;2023-01-29T02:28:36;100333.09;;;-0.88;100.00
56270;BME280;42176;43.240;27.880;2023-01-29T02:31:32;100334.25;;;-0.44;100.00
56270;BME280;42176;43.240;27.880;2023-01-29T02:34:25;100343.06;;;-0.39;100.00
56270;BME280;42176;43.240;27.880;2023-01-29T02:37:01;100319.25;;;-0.87;100.00
56270;BME280;42176;43.240;27.880;2023-01-29T02:39:38;100306.53;;;-0.76;100.00
56270;BME280;42176;43.240;27.880;2023-01-29T02:42:14;100292.75;;;-0.38;100.00
56270;BME280;42176;43.240;27.880;2023-01-29T02:44:54;100328.41;;;-0.36;100.00
56270;BME280;42176;43.240;27.880;2023-01-29T02:47:34;100308.66;;;-0.93;100.00
56270;BME280;42176;43.240;27.880;2023-01-29T02:52:41;100310.34;;;-0.63;99.14
56270;BME280;42176;43.240;27.880;2023-01-29T02:58:09;100348.63;;;-0.91;100.00
56270;BME280;42176;43.240;27.880;2023-01-29T03:00:40;100321.91;;;-1.16;100.00
56270;BME280;42176;43.240;27.880;2023-01-29T03:03:09;100331.34;;;-0.89;100.00
56270;BME280;42176;43.240;27.880;2023-01-29T03:08:11;100343.59;;;-0.53;99.86
56270;BME280;42176;43.240;27.880;2023-01-29T03:10:47;100348.19;;;-1.07;100.00
56270;BME280;42176;43.240;27.880;2023-01-29T03:13:20;100320.81;;;-1.24;100.00
56270;BME280;42176;43.240;27.880;2023-01-29T03:15:54;100333.53;;;-0.72;100.00
56270;BME280;42176;43.240;27.880;2023-01-29T03:18:28;100362.03;;;-0.45;100.00
56270;BME280;42176;43.240;27.880;2023-01-29T03:21:07;100317.88;;;-0.39;98.54
56270;BME280;42176;43.240;27.880;2023-01-29T03:23:56;100341.59;;;-0.95;100.00
56270;BME280;42176;43.240;27.880;2023-01-29T03:26:43;100324.63;;;-1.13;100.00
56270;BME280;42176;43.240;27.880;2023-01-29T03:29:34;100313.00;;;-0.60;99.66
56270;BME280;42176;43.240;27.880;2023-01-29T03:32:20;100377.94;;;-0.34;97.83
56270;BME280;42176;43.240;27.880;2023-01-29T03:34:56;100315.06;;;-0.82;97.84
56270;BME280;42176;43.240;27.880;2023-01-29T03:37:32;100349.50;;;-1.21;100.00
56270;BME280;42176;43.240;27.880;2023-01-29T03:40:04;100333.09;;;-0.88;100.00
56270;BME280;42176;43.240;27.880;2023-01-29T03:43:17;100331.31;;;-0.58;99.80
56270;BME280;42176;43.240;27.880;2023-01-29T03:50:41;100335.75;;;-1.17;100.00
56270;BME280;42176;43.240;27.880;2023-01-29T03:54:13;100314.72;;;-0.94;100.00
56270;BME280;42176;43.240;27.880;2023-01-29T03:59:37;100311.13;;;-0.98;100.00
56270;BME280;42176;43.240;27.880;2023-01-29T04:02:18;100359.56;;;-1.33;100.00
56270;BME280;42176;43.240;27.880;2023-01-29T04:04:47;100348.56;;;-0.94;100.00
56270;BME280;42176;43.240;27.880;2023-01-29T04:07:19;100337.47;;;-0.55;100.00
56270;BME280;42176;43.240;27.880;2023-01-29T04:10:14;100325.69;;;-1.04;100.00
56270;BME280;42176;43.240;27.880;2023-01-29T04:12:49;100352.50;;;-1.38;100.00
56270;BME280;42176;43.240;27.880;2023-01-29T04:15:17;100333.47;;;-1.06;100.00
56270;BME280;42176;43.240;27.880;2023-01-29T04:17:48;100345.63;;;-0.74;100.00
56270;BME280;42176;43.240;27.880;2023-01-29T04:20:15;100339.31;;;-0.51;100.00
56270;BME280;42176;43.240;27.880;2023-01-29T04:22:46;100348.28;;;-1.03;100.00
56270;BME280;42176;43.240;27.880;2023-01-29T04:25:15;100364.56;;;-1.40;100.00
56270;BME280;42176;43.240;27.880;2023-01-29T04:30:38;100363.75;;;-0.78;100.00
56270;BME280;42176;43.240;27.880;2023-01-29T04:33:16;100377.38;;;-0.56;100.00
56270;BME280;42176;43.240;27.880;2023-01-29T04:38:30;100362.91;;;-1.38;100.00
56270;BME280;42176;43.240;27.880;2023-01-29T04:41:04;100366.88;;;-1.20;100.00
56270;BME280;42176;43.240;27.880;2023-01-29T04:46:34;100393.81;;;-0.89;100.00
56270;BME280;42176;43.240;27.880;2023-01-29T04:49:21;100402.25;;;-1.54;100.00
56270;BME280;42176;43.240;27.880;2023-01-29T04:57:34;100399.78;;;-0.61;100.00
56270;BME280;42176;43.240;27.880;2023-01-29T05:02:36;100407.56;;;-1.51;100.00
56270;BME280;42176;43.240;27.880;2023-01-29T05:05:04;100412.25;;;-1.12;100.00
56270;BME280;42176;43.240;27.880;2023-01-29T05:07:31;100422.78;;;-0.46;100.00
56270;BME280;42176;43.240;27.880;2023-01-29T05:09:58;100408.50;;;-1.20;100.00
56270;BME280;42176;43.240;27.880;2023-01-29T05:12:25;100408.28;;;-1.55;100.00
56270;BME280;42176;43.240;27.880;2023-01-29T05:14:53;100398.94;;;-1.21;100.00
56270;BME280;42176;43.240;27.880;2023-01-29T05:17:20;100414.47;;;-0.95;100.00
56270;BME280;42176;43.240;27.880;2023-01-29T05:19:46;100411.31;;;-0.53;100.00
56270;BME280;42176;43.240;27.880;2023-01-29T05:22:15;100408.50;;;-1.20;100.00
56270;BME280;42176;43.240;27.880;2023-01-29T05:24:42;100408.38;;;-1.25;100.00
56270;BME280;42176;43.240;27.880;2023-01-29T05:27:14;100404.41;;;-0.83;100.00
56270;BME280;42176;43.240;27.880;2023-01-29T05:30:00;100409.22;;;-0.34;100.00
56270;BME280;42176;43.240;27.880;2023-01-29T05:32:25;100412.41;;;-1.05;100.00
56270;BME280;42176;43.240;27.880;2023-01-29T05:34:51;100402.72;;;-1.40;100.00
56270;BME280;42176;43.240;27.880;2023-01-29T05:37:16;100407.50;;;-0.96;100.00
56270;BME280;42176;43.240;27.880;2023-01-29T05:39:42;100414.97;;;-0.77;100.00
56270;BME280;42176;43.240;27.880;2023-01-29T05:42:07;100407.97;;;-0.49;100.00
56270;BME280;42176;43.240;27.880;2023-01-29T05:44:35;100423.22;;;-0.29;100.00
56270;BME280;42176;43.240;27.880;2023-01-29T05:47:01;100423.88;;;-0.04;100.00
56270;BME280;42176;43.240;27.880;2023-01-29T05:49:29;100425.22;;;-0.83;100.00
56270;BME280;42176;43.240;27.880;2023-01-29T05:51:55;100419.13;;;-1.14;100.00
56270;BME280;42176;43.240;27.880;2023-01-29T05:54:20;100434.56;;;-0.89;100.00
56270;BME280;42176;43.240;27.880;2023-01-29T05:56:46;100421.31;;;-0.67;100.00
56270;BME280;42176;43.240;27.880;2023-01-29T05:59:11;100440.69;;;-0.26;100.00
56270;BME280;42176;43.240;27.880;2023-01-29T06:01:37;100452.56;;;-0.97;100.00
56270;BME280;42176;43.240;27.880;2023-01-29T06:04:02;100445.41;;;-1.04;100.00
56270;BME280;42176;43.240;27.880;2023-01-29T06:06:28;100439.53;;;-0.68;100.00
56270;BME280;42176;43.240;27.880;2023-01-29T06:08:54;100445.09;;;-0.22;100.00
56270;BME280;42176;43.240;27.880;2023-01-29T06:11:20;100460.25;;;-0.71;100.00
56270;BME280;42176;43.240;27.880;2023-01-29T06:13:46;100477.47;;;-1.05;100.00
56270;BME280;42176;43.240;27.880;2023-01-29T06:16:12;100474.31;;;-0.66;100.00
56270;BME280;42176;43.240;27.880;2023-01-29T06:18:38;100479.13;;;-0.18;100.00
56270;BME280;42176;43.240;27.880;2023-01-29T06:21:06;100467.75;;;-0.52;100.00
56270;BME280;42176;43.240;27.880;2023-01-29T06:23:32;100501.25;;;-0.93;100.00
56270;BME280;42176;43.240;27.880;2023-01-29T06:25:59;100476.66;;;-0.43;100.00
56270;BME280;42176;43.240;27.880;2023-01-29T06:28:25;100484.81;;;0.01;100.00
56270;BME280;42176;43.240;27.880;2023-01-29T06:30:50;100472.06;;;-0.22;100.00
56270;BME280;42176;43.240;27.880;2023-01-29T06:33:16;100490.25;;;-0.84;100.00
56270;BME280;42176;43.240;27.880;2023-01-29T06:35:41;100472.34;;;-0.73;100.00
56270;BME280;42176;43.240;27.880;2023-01-29T06:38:06;100484.78;;;-0.33;100.00
56270;BME280;42176;43.240;27.880;2023-01-29T06:40:32;100487.88;;;0.18;100.00
56270;BME280;42176;43.240;27.880;2023-01-29T06:42:59;100484.66;;;-0.05;100.00
56270;BME280;42176;43.240;27.880;2023-01-29T06:45:25;100492.19;;;-0.77;100.00
56270;BME280;42176;43.240;27.880;2023-01-29T06:47:51;100489.44;;;-0.53;100.00
56270;BME280;42176;43.240;27.880;2023-01-29T06:50:16;100493.06;;;-0.16;100.00
56270;BME280;42176;43.240;27.880;2023-01-29T06:52:42;100485.59;;;0.32;100.00
56270;BME280;42176;43.240;27.880;2023-01-29T06:55:08;100477.94;;;-0.29;100.00
56270;BME280;42176;43.240;27.880;2023-01-29T06:57:33;100488.69;;;-0.49;100.00
56270;BME280;42176;43.240;27.880;2023-01-29T06:59:59;100484.66;;;-0.05;100.00
56270;BME280;42176;43.240;27.880;2023-01-29T07:02:24;100480.78;;;0.48;100.00
56270;BME280;42176;43.240;27.880;2023-01-29T07:04:49;100503.47;;;-0.16;100.00
56270;BME280;42176;43.240;27.880;2023-01-29T07:07:15;100460.50;;;-0.62;100.00
56270;BME280;42176;43.240;27.880;2023-01-29T07:09:41;100463.63;;;-0.11;100.00
56270;BME280;42176;43.240;27.880;2023-01-29T07:12:08;100480.94;;;0.19;100.00
56270;BME280;42176;43.240;27.880;2023-01-29T07:14:33;100467.44;;;0.35;100.00
56270;BME280;42176;43.240;27.880;2023-01-29T07:16:59;100447.78;;;0.50;97.86
56270;BME280;42176;43.240;27.880;2023-01-29T07:19:24;100482.63;;;-0.16;99.55
56270;BME280;42176;43.240;27.880;2023-01-29T07:21:49;100500.78;;;-0.51;100.00
56270;BME280;42176;43.240;27.880;2023-01-29T07:24:15;100477.69;;;-0.06;100.00
56270;BME280;42176;43.240;27.880;2023-01-29T07:26:41;100473.28;;;0.25;100.00
56270;BME280;42176;43.240;27.880;2023-01-29T07:29:06;100504.88;;;0.37;100.00
56270;BME280;42176;43.240;27.880;2023-01-29T07:31:31;100474.59;;;0.42;98.25
56270;BME280;42176;43.240;27.880;2023-01-29T07:33:57;100474.97;;;0.23;98.49
56270;BME280;42176;43.240;27.880;2023-01-29T07:36:22;100501.31;;;-0.32;100.00
56270;BME280;42176;43.240;27.880;2023-01-29T07:38:49;100504.53;;;-0.41;100.00
56270;BME280;42176;43.240;27.880;2023-01-29T07:41:15;100492.59;;;0.33;99.18
56270;BME280;42176;43.240;27.880;2023-01-29T07:43:41;100494.34;;;0.68;92.66
56270;BME280;42176;43.240;27.880;2023-01-29T07:46:06;100495.88;;;-0.70;98.69
56270;BME280;42176;43.240;27.880;2023-01-29T07:48:32;100497.75;;;-1.23;100.00
56270;BME280;42176;43.240;27.880;2023-01-29T07:50:57;100508.09;;;-0.37;100.00
56270;BME280;42176;43.240;27.880;2023-01-29T07:53:23;100515.78;;;0.56;99.77
56270;BME280;42176;43.240;27.880;2023-01-29T07:55:49;100517.94;;;0.05;98.53
56270;BME280;42176;43.240;27.880;2023-01-29T07:58:15;100502.53;;;-0.19;100.00
56270;BME280;42176;43.240;27.880;2023-01-29T08:00:40;100527.00;;;-0.44;100.00
56270;BME280;42176;43.240;27.880;2023-01-29T08:03:10;100524.19;;;0.10;100.00
56270;BME280;42176;43.240;27.880;2023-01-29T08:05:36;100506.41;;;0.64;96.51
56270;BME280;42176;43.240;27.880;2023-01-29T08:08:02;100523.91;;;0.01;99.18
56270;BME280;42176;43.240;27.880;2023-01-29T08:10:28;100528.75;;;-0.43;100.00
56270;BME280;42176;43.240;27.880;2023-01-29T08:12:58;100548.69;;;0.17;100.00
56270;BME280;42176;43.240;27.880;2023-01-29T08:15:24;100531.88;;;0.39;100.00
56270;BME280;42176;43.240;27.880;2023-01-29T08:17:51;100547.25;;;0.62;99.30
56270;BME280;42176;43.240;27.880;2023-01-29T08:20:17;100547.94;;;0.55;97.69
56270;BME280;42176;43.240;27.880;2023-01-29T08:22:43;100562.16;;;0.02;100.00
56270;BME280;42176;43.240;27.880;2023-01-29T08:25:09;100531.34;;;-0.74;100.00
56270;BME280;42176;43.240;27.880;2023-01-29T08:27:35;100530.84;;;-0.01;100.00
56270;BME280;42176;43.240;27.880;2023-01-29T08:30:01;100545.59;;;0.32;100.00
56270;BME280;42176;43.240;27.880;2023-01-29T08:32:26;100540.31;;;0.64;100.00
56270;BME280;42176;43.240;27.880;2023-01-29T08:34:51;100568.91;;;0.26;100.00
56270;BME280;42176;43.240;27.880;2023-01-29T08:37:17;100558.53;;;-0.35;100.00
56270;BME280;42176;43.240;27.880;2023-01-29T08:39:42;100537.59;;;-0.38;100.00
56270;BME280;42176;43.240;27.880;2023-01-29T08:42:08;100557.22;;;0.11;100.00
56270;BME280;42176;43.240;27.880;2023-01-29T08:44:34;100554.75;;;0.50;100.00
56270;BME280;42176;43.240;27.880;2023-01-29T08:46:59;100564.53;;;-0.07;100.00
56270;BME280;42176;43.240;27.880;2023-01-29T08:49:25;100564.50;;;-0.68;100.00
56270;BME280;42176;43.240;27.880;2023-01-29T08:51:50;100545.44;;;-0.06;100.00
56270;BME280;42176;43.240;27.880;2023-01-29T08:54:16;100548.97;;;0.28;100.00
56270;BME280;42176;43.240;27.880;2023-01-29T08:56:42;100563.34;;;0.45;100.00
56270;BME280;42176;43.240;27.880;2023-01-29T08:59:09;100553.34;;;-0.03;100.00
56270;BME280;42176;43.240;27.880;2023-01-29T09:01:34;100572.41;;;-0.36;100.00
56270;BME280;42176;43.240;27.880;2023-01-29T09:04:00;100553.88;;;0.16;100.00
56270;BME280;42176;43.240;27.880;2023-01-29T09:06:25;100562.44;;;0.43;100.00
56270;BME280;42176;43.240;27.880;2023-01-29T09:08:51;100554.09;;;-0.07;100.00
56270;BME280;42176;43.240;27.880;2023-01-29T09:11:16;100575.94;;;-0.63;100.00
56270;BME280;42176;43.240;27.880;2023-01-29T09:13:41;100559.41;;;-0.04;100.00
56270;BME280;42176;43.240;27.880;2023-01-29T09:16:08;100546.50;;;0.33;100.00
56270;BME280;42176;43.240;27.880;2023-01-29T09:18:34;100555.75;;;0.55;100.00
56270;BME280;42176;43.240;27.880;2023-01-29T09:20:59;100546.25;;;0.58;100.00
56270;BME280;42176;43.240;27.880;2023-01-29T09:23:27;100550.16;;;0.07;100.00
56270;BME280;42176;43.240;27.880;2023-01-29T09:25:53;100549.88;;;-0.34;100.00
56270;BME280;42176;43.240;27.880;2023-01-29T09:28:18;100554.94;;;0.24;100.00
56270;BME280;42176;43.240;27.880;2023-01-29T09:30:44;100550.53;;;0.90;100.00
56270;BME280;42176;43.240;27.880;2023-01-29T09:33:10;100548.28;;;0.35;100.00
56270;BME280;42176;43.240;27.880;2023-01-29T09:35:36;100553.84;;;-0.17;100.00
56270;BME280;42176;43.240;27.880;2023-01-29T09:38:01;100576.22;;;0.39;100.00
56270;BME280;42176;43.240;27.880;2023-01-29T09:43:25;100528.13;;;0.28;99.00
56270;BME280;42176;43.240;27.880;2023-01-29T09:45:58;100518.38;;;-0.11;100.00
56270;BME280;42176;43.240;27.880;2023-01-29T09:48:27;100528.75;;;0.53;100.00
56270;BME280;42176;43.240;27.880;2023-01-29T09:50:57;100530.56;;;0.92;96.67
56270;BME280;42176;43.240;27.880;2023-01-29T09:53:44;100522.66;;;0.52;96.56
56270;BME280;42176;43.240;27.880;2023-01-29T09:56:13;100511.66;;;-0.03;98.17
56270;BME280;42176;43.240;27.880;2023-01-29T09:58:42;100514.84;;;0.54;97.85
56270;BME280;42176;43.240;27.880;2023-01-29T10:04:27;100507.16;;;0.25;97.24
56270;BME280;42176;43.240;27.880;2023-01-29T10:24:03;100513.06;;;0.51;94.18
56270;BME280;42176;43.240;27.880;2023-01-29T10:26:26;100529.97;;;0.67;93.22
56270;BME280;42176;43.240;27.880;2023-01-29T10:28:55;100510.53;;;0.21;91.82
56270;BME280;42176;43.240;27.880;2023-01-29T10:31:29;100511.28;;;-0.17;96.02
56270;BME280;42176;43.240;27.880;2023-01-29T10:34:00;100510.41;;;-0.18;99.68
56270;BME280;42176;43.240;27.880;2023-01-29T10:36:41;100529.56;;;0.52;96.07
56270;BME280;42176;43.240;27.880;2023-01-29T10:39:16;100519.78;;;0.08;95.44
56270;BME280;42176;43.240;27.880;2023-01-29T10:47:33;100510.25;;;0.43;92.54
56270;BME280;42176;43.240;27.880;2023-01-29T11:00:35;100501.97;;;-0.07;94.88
56270;BME280;42176;43.240;27.880;2023-01-29T11:06:07;100496.69;;;-0.10;99.00
56270;BME280;42176;43.240;27.880;2023-01-29T11:09:07;100503.22;;;0.41;93.96
56270;BME280;42176;43.240;27.880;2023-01-29T11:12:39;100516.88;;;-0.34;96.63
56270;BME280;42176;43.240;27.880;2023-01-29T11:17:26;100502.97;;;0.30;97.58
56270;BME280;42176;43.240;27.880;2023-01-29T11:19:53;100519.91;;;0.83;94.00
56270;BME280;42176;43.240;27.880;2023-01-29T11:22:30;100514.69;;;0.12;95.99
56270;BME280;42176;43.240;27.880;2023-01-29T11:25:29;100524.78;;;-0.61;100.00
56270;BME280;42176;43.240;27.880;2023-01-29T11:28:00;100510.56;;;-0.11;100.00
56270;BME280;42176;43.240;27.880;2023-01-29T11:30:33;100520.28;;;0.28;96.21
56270;BME280;42176;43.240;27.880;2023-01-29T11:33:11;100529.41;;;0.10;92.20
56270;BME280;42176;43.240;27.880;2023-01-29T11:35:42;100529.25;;;-0.57;95.45
56270;BME280;42176;43.240;27.880;2023-01-29T11:38:27;100525.31;;;-0.42;99.42
56270;BME280;42176;43.240;27.880;2023-01-29T11:41:04;100526.69;;;0.07;97.37
56270;BME280;42176;43.240;27.880;2023-01-29T11:43:31;100523.66;;;0.24;93.43
56270;BME280;42176;43.240;27.880;2023-01-29T11:46:02;100529.09;;;-0.31;96.41
56270;BME280;42176;43.240;27.880;2023-01-29T11:48:49;100527.81;;;-0.46;100.00
56270;BME280;42176;43.240;27.880;2023-01-29T11:51:25;100521.25;;;-0.02;98.91
56270;BME280;42176;43.240;27.880;2023-01-29T11:54:00;100515.09;;;0.28;94.49
56270;BME280;42176;43.240;27.880;2023-01-29T11:56:41;100517.44;;;0.52;93.24
56270;BME280;42176;43.240;27.880;2023-01-29T11:59:40;100518.94;;;0.42;91.08
56270;BME280;42176;43.240;27.880;2023-01-29T12:02:28;100520.09;;;-0.42;96.33
56270;BME280;42176;43.240;27.880;2023-01-29T12:05:18;100521.31;;;0.01;97.10
56270;BME280;42176;43.240;27.880;2023-01-29T12:07:45;100517.53;;;0.57;93.77
56270;BME280;42176;43.240;27.880;2023-01-29T12:10:34;100524.84;;;0.03;95.90
56270;BME280;42176;43.240;27.880;2023-01-29T12:13:26;100537.94;;;-0.26;100.00
56270;BME280;42176;43.240;27.880;2023-01-29T12:22:04;100535.19;;;0.67;94.85
56270;BME280;42176;43.240;27.880;2023-01-29T12:24:44;100528.94;;;0.97;93.11
56270;BME280;42176;43.240;27.880;2023-01-29T12:27:24;100527.75;;;0.14;94.47
56270;BME280;42176;43.240;27.880;2023-01-29T12:30:16;100534.66;;;-0.80;99.68
56270;BME280;42176;43.240;27.880;2023-01-29T12:32:52;100543.00;;;0.67;98.19
56270;BME280;42176;43.240;27.880;2023-01-29T12:35:32;100539.41;;;2.24;86.05
56270;BME280;42176;43.240;27.880;2023-01-29T12:38:03;100545.03;;;-0.22;92.73
56270;BME280;42176;43.240;27.880;2023-01-29T12:41:19;100551.47;;;0.23;96.26
56270;BME280;42176;43.240;27.880;2023-01-29T12:43:47;100538.34;;;0.54;94.58
56270;BME280;42176;43.240;27.880;2023-01-29T12:46:38;100554.28;;;0.31;91.06
56270;BME280;42176;43.240;27.880;2023-01-29T12:49:11;100551.66;;;-0.33;96.68
56270;BME280;42176;43.240;27.880;2023-01-29T12:51:45;100552.00;;;-0.21;98.19
56270;BME280;42176;43.240;27.880;2023-01-29T12:54:19;100548.09;;;0.61;94.77
56270;BME280;42176;43.240;27.880;2023-01-29T12:56:52;100569.03;;;-0.02;94.77
56270;BME280;42176;43.240;27.880;2023-01-29T12:59:30;100562.91;;;-0.34;96.57
56270;BME280;42176;43.240;27.880;2023-01-29T13:02:03;100554.44;;;0.05;97.18
56270;BME280;42176;43.240;27.880;2023-01-29T13:04:37;100555.13;;;0.30;95.97
56270;BME280;42176;43.240;27.880;2023-01-29T13:07:12;100542.28;;;0.38;95.69
56270;BME280;42176;43.240;27.880;2023-01-29T13:09:42;100552.97;;;0.49;96.21
56270;BME280;42176;43.240;27.880;2023-01-29T13:12:13;100543.00;;;0.67;93.81
56270;BME280;42176;43.240;27.880;2023-01-29T13:14:44;100554.75;;;-0.14;95.59
56270;BME280;42176;43.240;27.880;2023-01-29T13:17:22;100564.75;;;-0.59;100.00
56270;BME280;42176;43.240;27.880;2023-01-29T13:19:51;100567.78;;;-0.14;100.00
56270;BME280;42176;43.240;27.880;2023-01-29T13:22:24;100558.41;;;0.23;97.45
56270;BME280;42176;43.240;27.880;2023-01-29T13:24:51;100568.38;;;0.38;95.65
56270;BME280;42176;43.240;27.880;2023-01-29T13:27:25;100561.06;;;0.58;94.16
56270;BME280;42176;43.240;27.880;2023-01-29T13:29:52;100566.91;;;0.16;92.88
56270;BME280;42176;43.240;27.880;2023-01-29T13:32:29;100571.19;;;-0.48;97.74
56270;BME280;42176;43.240;27.880;2023-01-29T13:35:11;100573.72;;;-0.20;98.73
56270;BME280;42176;43.240;27.880;2023-01-29T13:37:52;100560.75;;;0.45;93.83
56270;BME280;42176;43.240;27.880;2023-01-29T13:40:24;100571.50;;;-0.06;92.84
56270;BME280;42176;43.240;27.880;2023-01-29T13:42:51;100570.72;;;-0.34;94.30
56270;BME280;42176;43.240;27.880;2023-01-29T13:45:22;100578.50;;;-0.05;94.84
56270;BME280;42176;43.240;27.880;2023-01-29T13:47:50;100576.84;;;0.64;89.48
56270;BME280;42176;43.240;27.880;2023-01-29T13:52:54;100582.25;;;-0.26;91.77
56270;BME280;42176;43.240;27.880;2023-01-29T13:55:33;100579.34;;;0.26;90.64
56270;BME280;42176;43.240;27.880;2023-01-29T13:58:06;100580.84;;;0.85;86.49
56270;BME280;42176;43.240;27.880;2023-01-29T14:10:27;100586.34;;;0.60;86.93
56270;BME280;42176;43.240;27.880;2023-01-29T14:18:25;100591.28;;;0.18;88.67
56270;BME280;42176;43.240;27.880;2023-01-29T14:21:10;100595.31;;;0.38;87.78
56270;BME280;42176;43.240;27.880;2023-01-29T14:23:48;100592.38;;;0.58;86.59
56270;BME280;42176;43.240;27.880;2023-01-29T14:26:31;100587.66;;;0.80;85.92
56270;BME280;42176;43.240;27.880;2023-01-29T14:29:18;100594.00;;;0.89;85.75
56270;BME280;42176;43.240;27.880;2023-01-29T14:31:57;100592.25;;;0.88;84.92
56270;BME280;42176;43.240;27.880;2023-01-29T14:34:51;100597.53;;;0.91;84.30
56270;BME280;42176;43.240;27.880;2023-01-29T14:39:46;100608.91;;;-0.91;94.66
56270;BME280;42176;43.240;27.880;2023-01-29T14:42:20;100612.47;;;-0.31;94.72
56270;BME280;42176;43.240;27.880;2023-01-29T14:45:54;100608.53;;;0.12;92.40
56270;BME280;42176;43.240;27.880;2023-01-29T14:52:53;100610.22;;;0.10;89.24
56270;BME280;42176;43.240;27.880;2023-01-29T14:57:48;100614.34;;;-0.27;95.20